createdAt,value
2023-05-19T00:03:13.756Z,0
2023-05-19T00:18:13.353Z,0
2023-05-19T00:33:13.330Z,0
2023-05-19T00:48:13.295Z,0
2023-05-19T01:03:13.476Z,0
2023-05-19T01:18:13.398Z,0
2023-05-19T01:33:13.217Z,0
2023-05-19T01:48:13.299Z,0
2023-05-19T02:03:13.170Z,0
2023-05-19T02:18:13.237Z,0
2023-05-19T02:33:13.184Z,0
2023-05-19T02:48:13.233Z,0
2023-05-19T03:03:13.162Z,0
2023-05-19T03:18:13.148Z,1
2023-05-19T03:33:13.250Z,0
2023-05-19T03:48:13.139Z,0
2023-05-19T04:03:13.207Z,0
2023-05-19T04:18:13.084Z,0
2023-05-19T04:33:13.066Z,0
2023-05-19T04:48:13.055Z,0
2023-05-19T05:03:13.126Z,0
2023-05-19T05:18:13.010Z,0
2023-05-19T05:33:13.154Z,0
2023-05-19T05:48:12.991Z,0
2023-05-19T06:03:13.021Z,0
2023-05-19T06:18:12.954Z,0
2023-05-19T06:33:12.909Z,0
2023-05-19T06:48:12.959Z,0
2023-05-19T07:03:12.928Z,2
2023-05-19T07:18:12.930Z,0
2023-05-19T07:33:12.821Z,0
2023-05-19T07:48:12.823Z,0
2023-05-19T08:03:12.817Z,1
2023-05-19T08:18:12.784Z,0
2023-05-19T08:33:12.707Z,0
2023-05-19T08:48:12.686Z,0
2023-05-19T09:18:12.621Z,0
2023-05-19T09:33:12.616Z,1
2023-05-19T09:48:12.542Z,0
2023-05-19T10:03:12.557Z,0
2023-05-19T10:18:12.601Z,0
2023-05-19T10:33:12.553Z,0
2023-05-19T10:48:12.512Z,0
2023-05-19T11:03:12.469Z,0
2023-05-19T11:18:12.421Z,0
2023-05-19T11:33:12.426Z,0
2023-05-19T11:48:12.408Z,0
2023-05-19T12:03:12.375Z,4
2023-05-19T12:18:12.442Z,5
2023-05-19T12:33:12.278Z,0
2023-05-19T12:48:12.505Z,7
2023-05-19T13:03:12.264Z,16
2023-05-19T13:18:12.254Z,76
2023-05-19T13:33:12.228Z,127
2023-05-19T13:48:12.273Z,124
2023-05-19T14:03:12.179Z,166
2023-05-19T14:18:12.139Z,24
2023-05-19T14:33:12.116Z,206
2023-05-19T14:48:12.158Z,125
2023-05-19T15:03:12.060Z,227
2023-05-19T15:18:12.042Z,83
2023-05-19T15:33:12.037Z,199
2023-05-19T15:48:12.044Z,12
2023-05-19T16:03:12.013Z,130
2023-05-19T16:18:11.970Z,109
2023-05-19T16:33:11.916Z,52
2023-05-19T16:48:11.970Z,0
2023-05-19T17:03:12.066Z,2
2023-05-19T17:18:11.876Z,4
2023-05-19T17:33:11.823Z,0
2023-05-19T17:48:11.875Z,0
2023-05-19T18:03:11.854Z,0
2023-05-19T18:18:11.815Z,0
2023-05-19T18:33:11.681Z,0
2023-05-19T18:48:11.757Z,0
2023-05-19T19:03:11.726Z,0
2023-05-19T19:18:11.691Z,0
2023-05-19T19:33:11.757Z,0
2023-05-19T19:48:11.730Z,0
2023-05-19T20:03:11.679Z,0
2023-05-19T20:18:11.669Z,0
2023-05-19T20:33:11.738Z,0
2023-05-19T20:48:11.555Z,1
2023-05-19T21:03:11.722Z,0
2023-05-19T21:18:11.610Z,0
2023-05-19T21:33:11.528Z,1
2023-05-19T21:48:11.601Z,0
2023-05-19T22:03:11.534Z,0
2023-05-19T22:18:11.480Z,0
2023-05-19T22:33:11.517Z,0
2023-05-19T22:48:11.448Z,0
2023-05-19T23:03:11.398Z,0
2023-05-19T23:18:11.376Z,0
2023-05-19T23:33:11.359Z,0
2023-05-19T23:48:11.317Z,0
